KSNH

Savannah-Hardin County Airport

Savannah, Tennessee, USA
METAR KSNH 220355Z AUTO VRB03KT 10SM CLR 00/M09 A3031 RMK A01
Observed Flight Rules
Jan-22 @ 03:55 UTC (17 minutes ago) Visual Flight Rules
Wind Visibility Clouds
Variable at 3 knots 10 miles
  • Clear skies
Temperatures Readings
Current 0°C / 32°F
Dewpoint -9°C / 16°F
Humidity 51%
Altimeter 30.31" Hg
Pressure 1026.42 hPa
Elevation 144
METAR KSNH 220355Z AUTO VRB03KT 10SM CLR 00/M09 A3031 RMK A01
Observed Flight Rules
Jan-22 @ 03:55 UTC
(17 minutes ago)
VFR
Wind Visibility
Variable at 3 knots 10 miles
Clouds
  • Clear skies
Temperature Dewpoint
0°C / 32°F -9°C / 16°F
Humidity Altimeter Pressure
51% 30.31" Hg 1026.42 hPa